sensor_id;sensor_type;location;lat;lon;timestamp;temperature;humidity
15777;DHT22;7989;51.198;6.676;2023-12-28T00:01:30;10.50;99.90
15777;DHT22;7989;51.198;6.676;2023-12-28T00:03:57;10.50;99.90
15777;DHT22;7989;51.198;6.676;2023-12-28T00:06:24;10.50;99.90
15777;DHT22;7989;51.198;6.676;2023-12-28T00:08:51;10.50;99.90
15777;DHT22;7989;51.198;6.676;2023-12-28T00:11:19;10.50;99.90
15777;DHT22;7989;51.198;6.676;2023-12-28T00:13:46;10.50;99.90
15777;DHT22;7989;51.198;6.676;2023-12-28T00:16:13;10.50;99.90
15777;DHT22;7989;51.198;6.676;2023-12-28T00:18:39;10.50;99.90
15777;DHT22;7989;51.198;6.676;2023-12-28T00:21:06;10.40;99.90
15777;DHT22;7989;51.198;6.676;2023-12-28T00:23:33;10.40;99.90
15777;DHT22;7989;51.198;6.676;2023-12-28T00:26:00;10.40;99.90
15777;DHT22;7989;51.198;6.676;2023-12-28T00:28:28;10.40;99.90
15777;DHT22;7989;51.198;6.676;2023-12-28T00:30:55;10.30;99.90
15777;DHT22;7989;51.198;6.676;2023-12-28T00:33:21;10.30;99.90
15777;DHT22;7989;51.198;6.676;2023-12-28T00:35:48;10.30;99.90
15777;DHT22;7989;51.198;6.676;2023-12-28T00:38:15;10.20;99.90
15777;DHT22;7989;51.198;6.676;2023-12-28T00:40:42;10.20;99.90
15777;DHT22;7989;51.198;6.676;2023-12-28T00:43:09;10.20;99.90
15777;DHT22;7989;51.198;6.676;2023-12-28T00:45:37;10.20;99.90
15777;DHT22;7989;51.198;6.676;2023-12-28T00:48:04;10.20;99.90
15777;DHT22;7989;51.198;6.676;2023-12-28T00:50:31;10.20;99.90
15777;DHT22;7989;51.198;6.676;2023-12-28T00:52:58;10.20;99.90
15777;DHT22;7989;51.198;6.676;2023-12-28T00:55:25;10.20;99.90
15777;DHT22;7989;51.198;6.676;2023-12-28T00:57:53;10.20;99.90
15777;DHT22;7989;51.198;6.676;2023-12-28T01:00:20;10.20;99.90
15777;DHT22;7989;51.198;6.676;2023-12-28T01:02:48;10.20;99.90
15777;DHT22;7989;51.198;6.676;2023-12-28T01:05:15;10.20;99.90
15777;DHT22;7989;51.198;6.676;2023-12-28T01:07:42;10.10;99.90
15777;DHT22;7989;51.198;6.676;2023-12-28T01:10:09;10.10;99.90
15777;DHT22;7989;51.198;6.676;2023-12-28T01:12:36;10.10;99.90
15777;DHT22;7989;51.198;6.676;2023-12-28T01:15:02;10.10;99.90
15777;DHT22;7989;51.198;6.676;2023-12-28T01:17:28;10.10;99.90
15777;DHT22;7989;51.198;6.676;2023-12-28T01:19:56;10.10;99.90
15777;DHT22;7989;51.198;6.676;2023-12-28T01:22:23;10.20;99.90
15777;DHT22;7989;51.198;6.676;2023-12-28T01:24:50;10.10;99.90
15777;DHT22;7989;51.198;6.676;2023-12-28T01:27:17;10.10;99.90
15777;DHT22;7989;51.198;6.676;2023-12-28T01:29:44;10.20;99.90
15777;DHT22;7989;51.198;6.676;2023-12-28T01:32:11;10.10;99.90
15777;DHT22;7989;51.198;6.676;2023-12-28T01:34:37;10.10;99.90
15777;DHT22;7989;51.198;6.676;2023-12-28T01:37:07;10.20;99.90
15777;DHT22;7989;51.198;6.676;2023-12-28T01:39:34;10.10;99.90
15777;DHT22;7989;51.198;6.676;2023-12-28T01:42:01;10.10;99.90
15777;DHT22;7989;51.198;6.676;2023-12-28T01:44:28;10.10;99.90
15777;DHT22;7989;51.198;6.676;2023-12-28T01:46:54;10.10;99.90
15777;DHT22;7989;51.198;6.676;2023-12-28T01:49:21;10.20;99.90
15777;DHT22;7989;51.198;6.676;2023-12-28T01:51:49;10.10;99.90
15777;DHT22;7989;51.198;6.676;2023-12-28T01:54:17;10.20;99.90
15777;DHT22;7989;51.198;6.676;2023-12-28T01:56:45;10.20;99.90
15777;DHT22;7989;51.198;6.676;2023-12-28T01:59:12;10.20;99.90
15777;DHT22;7989;51.198;6.676;2023-12-28T02:01:39;10.20;99.90
15777;DHT22;7989;51.198;6.676;2023-12-28T02:04:06;10.20;99.90
15777;DHT22;7989;51.198;6.676;2023-12-28T02:06:33;10.20;99.90
15777;DHT22;7989;51.198;6.676;2023-12-28T02:09:00;10.20;99.90
15777;DHT22;7989;51.198;6.676;2023-12-28T02:11:29;10.20;99.90
15777;DHT22;7989;51.198;6.676;2023-12-28T02:13:56;10.20;99.90
15777;DHT22;7989;51.198;6.676;2023-12-28T02:16:27;10.20;99.90
15777;DHT22;7989;51.198;6.676;2023-12-28T02:18:56;10.20;99.90
15777;DHT22;7989;51.198;6.676;2023-12-28T02:21:27;10.30;99.90
15777;DHT22;7989;51.198;6.676;2023-12-28T02:23:54;10.30;99.90
15777;DHT22;7989;51.198;6.676;2023-12-28T02:26:22;10.30;99.90
15777;DHT22;7989;51.198;6.676;2023-12-28T02:28:49;10.30;99.90
15777;DHT22;7989;51.198;6.676;2023-12-28T02:31:21;10.30;99.90
15777;DHT22;7989;51.198;6.676;2023-12-28T02:33:52;10.30;99.90
15777;DHT22;7989;51.198;6.676;2023-12-28T02:36:23;10.30;99.90
15777;DHT22;7989;51.198;6.676;2023-12-28T02:38:51;10.30;99.90
15777;DHT22;7989;51.198;6.676;2023-12-28T02:41:22;10.30;99.90
15777;DHT22;7989;51.198;6.676;2023-12-28T02:43:50;10.30;99.90
15777;DHT22;7989;51.198;6.676;2023-12-28T02:46:17;10.30;99.90
15777;DHT22;7989;51.198;6.676;2023-12-28T02:48:44;10.40;99.90
15777;DHT22;7989;51.198;6.676;2023-12-28T02:51:11;10.40;99.90
15777;DHT22;7989;51.198;6.676;2023-12-28T02:53:37;10.40;99.90
15777;DHT22;7989;51.198;6.676;2023-12-28T02:56:05;10.40;99.90
15777;DHT22;7989;51.198;6.676;2023-12-28T02:58:33;10.50;99.90
15777;DHT22;7989;51.198;6.676;2023-12-28T03:01:00;10.50;99.90
15777;DHT22;7989;51.198;6.676;2023-12-28T03:03:27;10.50;99.90
15777;DHT22;7989;51.198;6.676;2023-12-28T03:05:55;10.50;99.90
15777;DHT22;7989;51.198;6.676;2023-12-28T03:08:21;10.40;99.90
15777;DHT22;7989;51.198;6.676;2023-12-28T03:10:48;10.40;99.90
15777;DHT22;7989;51.198;6.676;2023-12-28T03:13:15;10.40;99.90
15777;DHT22;7989;51.198;6.676;2023-12-28T03:15:43;10.40;99.90
15777;DHT22;7989;51.198;6.676;2023-12-28T03:18:10;10.40;99.90
15777;DHT22;7989;51.198;6.676;2023-12-28T03:20:37;10.40;99.90
15777;DHT22;7989;51.198;6.676;2023-12-28T03:23:04;10.40;99.90
15777;DHT22;7989;51.198;6.676;2023-12-28T03:25:31;10.50;99.90
15777;DHT22;7989;51.198;6.676;2023-12-28T03:27:57;10.40;99.90
15777;DHT22;7989;51.198;6.676;2023-12-28T03:30:24;10.50;99.90
15777;DHT22;7989;51.198;6.676;2023-12-28T03:32:52;10.50;99.90
15777;DHT22;7989;51.198;6.676;2023-12-28T03:35:19;10.50;99.90
15777;DHT22;7989;51.198;6.676;2023-12-28T03:37:46;10.50;99.90
15777;DHT22;7989;51.198;6.676;2023-12-28T03:40:13;10.50;99.90
15777;DHT22;7989;51.198;6.676;2023-12-28T03:42:40;10.50;99.90
15777;DHT22;7989;51.198;6.676;2023-12-28T03:45:08;10.50;99.90
15777;DHT22;7989;51.198;6.676;2023-12-28T03:47:35;10.50;99.90
15777;DHT22;7989;51.198;6.676;2023-12-28T03:50:03;10.50;99.90
15777;DHT22;7989;51.198;6.676;2023-12-28T03:52:30;10.40;99.90
15777;DHT22;7989;51.198;6.676;2023-12-28T03:54:57;10.40;99.90
15777;DHT22;7989;51.198;6.676;2023-12-28T03:57:25;10.40;99.90
15777;DHT22;7989;51.198;6.676;2023-12-28T03:59:52;10.40;99.90
15777;DHT22;7989;51.198;6.676;2023-12-28T04:02:19;10.40;99.90
15777;DHT22;7989;51.198;6.676;2023-12-28T04:04:46;10.30;99.90
15777;DHT22;7989;51.198;6.676;2023-12-28T04:07:14;10.30;99.90
15777;DHT22;7989;51.198;6.676;2023-12-28T04:09:41;10.30;99.90
15777;DHT22;7989;51.198;6.676;2023-12-28T04:12:08;10.30;99.90
15777;DHT22;7989;51.198;6.676;2023-12-28T04:14:35;10.30;99.90
15777;DHT22;7989;51.198;6.676;2023-12-28T04:17:02;10.30;99.90
15777;DHT22;7989;51.198;6.676;2023-12-28T04:19:28;10.30;99.90
15777;DHT22;7989;51.198;6.676;2023-12-28T04:21:57;10.40;99.90
15777;DHT22;7989;51.198;6.676;2023-12-28T04:24:25;10.40;99.90
15777;DHT22;7989;51.198;6.676;2023-12-28T04:26:52;10.30;99.90
15777;DHT22;7989;51.198;6.676;2023-12-28T04:29:18;10.30;99.90
15777;DHT22;7989;51.198;6.676;2023-12-28T04:31:46;10.30;99.90
15777;DHT22;7989;51.198;6.676;2023-12-28T04:34:13;10.30;99.90
15777;DHT22;7989;51.198;6.676;2023-12-28T04:36:40;10.40;99.90
15777;DHT22;7989;51.198;6.676;2023-12-28T04:39:08;10.40;99.90
15777;DHT22;7989;51.198;6.676;2023-12-28T04:41:36;10.40;99.90
15777;DHT22;7989;51.198;6.676;2023-12-28T04:44:03;10.40;99.90
15777;DHT22;7989;51.198;6.676;2023-12-28T04:46:30;10.50;99.90
15777;DHT22;7989;51.198;6.676;2023-12-28T04:48:57;10.50;99.90
15777;DHT22;7989;51.198;6.676;2023-12-28T04:51:23;10.50;99.90
15777;DHT22;7989;51.198;6.676;2023-12-28T04:53:50;10.40;99.90
15777;DHT22;7989;51.198;6.676;2023-12-28T04:56:18;10.50;99.90
15777;DHT22;7989;51.198;6.676;2023-12-28T04:58:46;10.50;99.90
15777;DHT22;7989;51.198;6.676;2023-12-28T05:01:13;10.50;99.90
15777;DHT22;7989;51.198;6.676;2023-12-28T05:03:40;10.60;99.90
15777;DHT22;7989;51.198;6.676;2023-12-28T05:06:07;10.60;99.90
15777;DHT22;7989;51.198;6.676;2023-12-28T05:08:34;10.60;99.90
15777;DHT22;7989;51.198;6.676;2023-12-28T05:11:01;10.60;99.90
15777;DHT22;7989;51.198;6.676;2023-12-28T05:13:27;10.60;99.90
15777;DHT22;7989;51.198;6.676;2023-12-28T05:15:55;10.60;99.90
15777;DHT22;7989;51.198;6.676;2023-12-28T05:18:22;10.60;99.90
15777;DHT22;7989;51.198;6.676;2023-12-28T05:20:49;10.60;99.90
15777;DHT22;7989;51.198;6.676;2023-12-28T05:23:16;10.60;99.90
15777;DHT22;7989;51.198;6.676;2023-12-28T05:25:42;10.60;99.90
15777;DHT22;7989;51.198;6.676;2023-12-28T05:28:11;10.70;99.90
15777;DHT22;7989;51.198;6.676;2023-12-28T05:30:38;10.70;99.90
15777;DHT22;7989;51.198;6.676;2023-12-28T05:33:06;10.70;99.90
15777;DHT22;7989;51.198;6.676;2023-12-28T05:35:33;10.60;99.90
15777;DHT22;7989;51.198;6.676;2023-12-28T05:38:00;10.70;99.90
15777;DHT22;7989;51.198;6.676;2023-12-28T05:40:26;10.70;99.90
15777;DHT22;7989;51.198;6.676;2023-12-28T05:42:53;10.70;99.90
15777;DHT22;7989;51.198;6.676;2023-12-28T05:45:20;10.70;99.90
15777;DHT22;7989;51.198;6.676;2023-12-28T05:47:47;10.80;99.90
15777;DHT22;7989;51.198;6.676;2023-12-28T05:50:15;10.70;99.90
15777;DHT22;7989;51.198;6.676;2023-12-28T05:52:42;10.70;99.90
15777;DHT22;7989;51.198;6.676;2023-12-28T05:55:09;10.80;99.90
15777;DHT22;7989;51.198;6.676;2023-12-28T05:57:36;10.80;99.90
15777;DHT22;7989;51.198;6.676;2023-12-28T06:00:03;10.70;99.90
15777;DHT22;7989;51.198;6.676;2023-12-28T06:02:31;10.80;99.90
15777;DHT22;7989;51.198;6.676;2023-12-28T06:04:58;10.80;99.90
15777;DHT22;7989;51.198;6.676;2023-12-28T06:07:26;10.80;99.90
15777;DHT22;7989;51.198;6.676;2023-12-28T06:09:53;10.80;99.90
15777;DHT22;7989;51.198;6.676;2023-12-28T06:12:20;10.80;99.90
15777;DHT22;7989;51.198;6.676;2023-12-28T06:14:47;10.80;99.90
15777;DHT22;7989;51.198;6.676;2023-12-28T06:17:13;10.80;99.90
15777;DHT22;7989;51.198;6.676;2023-12-28T06:19:41;10.80;99.90
15777;DHT22;7989;51.198;6.676;2023-12-28T06:22:07;10.80;99.90
15777;DHT22;7989;51.198;6.676;2023-12-28T06:24:38;10.80;99.90
15777;DHT22;7989;51.198;6.676;2023-12-28T06:27:06;10.80;99.90
15777;DHT22;7989;51.198;6.676;2023-12-28T06:29:32;10.80;99.90
15777;DHT22;7989;51.198;6.676;2023-12-28T06:31:59;10.80;99.90
15777;DHT22;7989;51.198;6.676;2023-12-28T06:34:26;10.80;99.90
15777;DHT22;7989;51.198;6.676;2023-12-28T06:36:53;10.80;99.90
15777;DHT22;7989;51.198;6.676;2023-12-28T06:39:20;10.80;99.90
15777;DHT22;7989;51.198;6.676;2023-12-28T06:41:48;10.80;99.90
15777;DHT22;7989;51.198;6.676;2023-12-28T06:44:15;10.80;99.90
15777;DHT22;7989;51.198;6.676;2023-12-28T06:46:42;10.80;99.90
15777;DHT22;7989;51.198;6.676;2023-12-28T06:49:09;10.70;99.90
15777;DHT22;7989;51.198;6.676;2023-12-28T06:51:35;10.80;99.90
15777;DHT22;7989;51.198;6.676;2023-12-28T06:54:02;10.80;99.90
15777;DHT22;7989;51.198;6.676;2023-12-28T06:56:29;10.80;99.90
15777;DHT22;7989;51.198;6.676;2023-12-28T06:58:57;10.80;99.90
15777;DHT22;7989;51.198;6.676;2023-12-28T07:01:24;10.80;99.90
15777;DHT22;7989;51.198;6.676;2023-12-28T07:03:51;10.80;99.90
15777;DHT22;7989;51.198;6.676;2023-12-28T07:06:18;10.80;99.90
15777;DHT22;7989;51.198;6.676;2023-12-28T07:08:45;10.80;99.90
15777;DHT22;7989;51.198;6.676;2023-12-28T07:11:11;10.80;99.90
15777;DHT22;7989;51.198;6.676;2023-12-28T07:13:38;10.80;99.90
15777;DHT22;7989;51.198;6.676;2023-12-28T07:16:07;10.80;99.90
15777;DHT22;7989;51.198;6.676;2023-12-28T07:18:34;10.80;99.90
15777;DHT22;7989;51.198;6.676;2023-12-28T07:21:00;10.80;99.90
15777;DHT22;7989;51.198;6.676;2023-12-28T07:23:27;10.80;99.90
15777;DHT22;7989;51.198;6.676;2023-12-28T07:25:54;10.80;99.90
15777;DHT22;7989;51.198;6.676;2023-12-28T07:28:21;10.80;99.90
15777;DHT22;7989;51.198;6.676;2023-12-28T07:30:48;10.80;99.90
15777;DHT22;7989;51.198;6.676;2023-12-28T07:33:16;10.80;99.90
15777;DHT22;7989;51.198;6.676;2023-12-28T07:35:43;10.80;99.90
15777;DHT22;7989;51.198;6.676;2023-12-28T07:38:10;10.80;99.90
15777;DHT22;7989;51.198;6.676;2023-12-28T07:40:37;10.80;99.90
15777;DHT22;7989;51.198;6.676;2023-12-28T07:43:04;10.80;99.90
15777;DHT22;7989;51.198;6.676;2023-12-28T07:45:31;10.80;99.90
15777;DHT22;7989;51.198;6.676;2023-12-28T07:47:58;10.80;99.90
15777;DHT22;7989;51.198;6.676;2023-12-28T07:50:26;10.80;99.90
15777;DHT22;7989;51.198;6.676;2023-12-28T07:52:53;10.80;99.90
15777;DHT22;7989;51.198;6.676;2023-12-28T07:55:20;10.90;99.90
15777;DHT22;7989;51.198;6.676;2023-12-28T07:57:47;10.90;99.90
15777;DHT22;7989;51.198;6.676;2023-12-28T08:00:17;10.90;99.90
15777;DHT22;7989;51.198;6.676;2023-12-28T08:02:44;10.90;99.90
15777;DHT22;7989;51.198;6.676;2023-12-28T08:05:11;10.80;99.90
15777;DHT22;7989;51.198;6.676;2023-12-28T08:07:39;10.90;99.90
15777;DHT22;7989;51.198;6.676;2023-12-28T08:10:07;10.90;99.90
15777;DHT22;7989;51.198;6.676;2023-12-28T08:12:34;10.90;99.90
15777;DHT22;7989;51.198;6.676;2023-12-28T08:15:00;10.90;99.90
15777;DHT22;7989;51.198;6.676;2023-12-28T08:17:27;10.90;99.90
15777;DHT22;7989;51.198;6.676;2023-12-28T08:19:54;10.80;99.90
15777;DHT22;7989;51.198;6.676;2023-12-28T08:22:21;10.80;99.90
15777;DHT22;7989;51.198;6.676;2023-12-28T08:24:49;10.70;99.90
15777;DHT22;7989;51.198;6.676;2023-12-28T08:27:16;10.70;99.90
15777;DHT22;7989;51.198;6.676;2023-12-28T08:29:43;10.70;99.90
15777;DHT22;7989;51.198;6.676;2023-12-28T08:32:11;10.70;99.90
15777;DHT22;7989;51.198;6.676;2023-12-28T08:34:37;10.70;99.90
15777;DHT22;7989;51.198;6.676;2023-12-28T08:37:04;10.70;99.90
15777;DHT22;7989;51.198;6.676;2023-12-28T08:39:31;10.70;99.90
15777;DHT22;7989;51.198;6.676;2023-12-28T08:41:59;10.80;99.90
15777;DHT22;7989;51.198;6.676;2023-12-28T08:44:26;10.80;99.90
15777;DHT22;7989;51.198;6.676;2023-12-28T08:46:53;10.80;99.90
15777;DHT22;7989;51.198;6.676;2023-12-28T08:49:19;10.80;99.90
15777;DHT22;7989;51.198;6.676;2023-12-28T08:51:47;10.70;99.90
15777;DHT22;7989;51.198;6.676;2023-12-28T08:54:14;10.80;99.90
15777;DHT22;7989;51.198;6.676;2023-12-28T08:56:41;10.80;99.90
15777;DHT22;7989;51.198;6.676;2023-12-28T08:59:10;10.80;99.90
15777;DHT22;7989;51.198;6.676;2023-12-28T09:01:37;10.90;99.90
15777;DHT22;7989;51.198;6.676;2023-12-28T09:04:06;11.00;99.90
15777;DHT22;7989;51.198;6.676;2023-12-28T09:06:33;11.10;99.90
15777;DHT22;7989;51.198;6.676;2023-12-28T09:09:01;11.20;99.90
15777;DHT22;7989;51.198;6.676;2023-12-28T09:11:29;11.20;99.90
15777;DHT22;7989;51.198;6.676;2023-12-28T09:13:56;11.20;99.90
15777;DHT22;7989;51.198;6.676;2023-12-28T09:16:24;11.10;99.90
15777;DHT22;7989;51.198;6.676;2023-12-28T09:18:51;11.10;99.90
15777;DHT22;7989;51.198;6.676;2023-12-28T09:21:18;11.20;99.90
15777;DHT22;7989;51.198;6.676;2023-12-28T09:23:45;11.20;99.90
15777;DHT22;7989;51.198;6.676;2023-12-28T09:26:12;11.30;99.90
15777;DHT22;7989;51.198;6.676;2023-12-28T09:28:39;11.30;99.90
15777;DHT22;7989;51.198;6.676;2023-12-28T09:31:06;11.30;99.90
15777;DHT22;7989;51.198;6.676;2023-12-28T09:33:34;11.40;99.90
15777;DHT22;7989;51.198;6.676;2023-12-28T09:36:03;11.50;99.90
15777;DHT22;7989;51.198;6.676;2023-12-28T09:38:30;11.60;99.90
15777;DHT22;7989;51.198;6.676;2023-12-28T09:40:58;11.80;99.90
15777;DHT22;7989;51.198;6.676;2023-12-28T09:43:31;11.90;99.90
15777;DHT22;7989;51.198;6.676;2023-12-28T09:46:06;11.90;99.90
15777;DHT22;7989;51.198;6.676;2023-12-28T09:48:37;11.80;99.90
15777;DHT22;7989;51.198;6.676;2023-12-28T09:51:04;11.70;99.90
15777;DHT22;7989;51.198;6.676;2023-12-28T09:53:31;11.70;99.90
15777;DHT22;7989;51.198;6.676;2023-12-28T09:55:58;11.80;99.90
15777;DHT22;7989;51.198;6.676;2023-12-28T09:58:26;11.80;99.90
15777;DHT22;7989;51.198;6.676;2023-12-28T10:00:53;11.80;99.90
15777;DHT22;7989;51.198;6.676;2023-12-28T10:03:20;11.80;99.90
15777;DHT22;7989;51.198;6.676;2023-12-28T10:05:48;11.80;99.90
15777;DHT22;7989;51.198;6.676;2023-12-28T10:08:15;11.80;99.90
15777;DHT22;7989;51.198;6.676;2023-12-28T10:10:43;11.90;99.90
15777;DHT22;7989;51.198;6.676;2023-12-28T10:13:16;11.90;99.90
15777;DHT22;7989;51.198;6.676;2023-12-28T10:15:43;11.90;99.90
15777;DHT22;7989;51.198;6.676;2023-12-28T10:18:10;11.90;99.90
15777;DHT22;7989;51.198;6.676;2023-12-28T10:20:38;11.90;99.90
15777;DHT22;7989;51.198;6.676;2023-12-28T10:23:06;12.00;99.90
15777;DHT22;7989;51.198;6.676;2023-12-28T10:25:33;12.00;99.90
15777;DHT22;7989;51.198;6.676;2023-12-28T10:28:04;12.00;99.90
15777;DHT22;7989;51.198;6.676;2023-12-28T10:30:31;12.00;99.90
15777;DHT22;7989;51.198;6.676;2023-12-28T10:32:58;12.10;99.90
15777;DHT22;7989;51.198;6.676;2023-12-28T10:35:25;12.20;99.90
15777;DHT22;7989;51.198;6.676;2023-12-28T10:37:52;12.30;99.90
15777;DHT22;7989;51.198;6.676;2023-12-28T10:40:21;12.30;99.90
15777;DHT22;7989;51.198;6.676;2023-12-28T10:42:51;12.30;99.90
15777;DHT22;7989;51.198;6.676;2023-12-28T10:45:19;12.30;99.90
15777;DHT22;7989;51.198;6.676;2023-12-28T10:48:01;12.20;99.90
15777;DHT22;7989;51.198;6.676;2023-12-28T10:50:35;12.00;99.90
15777;DHT22;7989;51.198;6.676;2023-12-28T10:53:21;12.00;99.90
15777;DHT22;7989;51.198;6.676;2023-12-28T10:55:58;12.00;99.90
15777;DHT22;7989;51.198;6.676;2023-12-28T10:58:36;12.10;99.90
15777;DHT22;7989;51.198;6.676;2023-12-28T11:01:07;12.10;99.90
15777;DHT22;7989;51.198;6.676;2023-12-28T11:03:37;12.10;99.90
15777;DHT22;7989;51.198;6.676;2023-12-28T11:06:11;12.20;99.90
15777;DHT22;7989;51.198;6.676;2023-12-28T11:08:39;12.30;99.90
15777;DHT22;7989;51.198;6.676;2023-12-28T11:11:14;12.40;99.90
15777;DHT22;7989;51.198;6.676;2023-12-28T11:13:42;12.50;99.90
15777;DHT22;7989;51.198;6.676;2023-12-28T11:16:09;12.50;99.90
15777;DHT22;7989;51.198;6.676;2023-12-28T11:18:36;12.60;99.90
15777;DHT22;7989;51.198;6.676;2023-12-28T11:21:03;12.50;99.90
15777;DHT22;7989;51.198;6.676;2023-12-28T11:23:30;12.40;99.90
15777;DHT22;7989;51.198;6.676;2023-12-28T11:25:57;12.30;99.90
15777;DHT22;7989;51.198;6.676;2023-12-28T11:28:26;12.20;99.90
15777;DHT22;7989;51.198;6.676;2023-12-28T11:30:56;12.30;99.90
15777;DHT22;7989;51.198;6.676;2023-12-28T11:33:23;12.50;99.90
15777;DHT22;7989;51.198;6.676;2023-12-28T11:35:52;12.90;99.90
15777;DHT22;7989;51.198;6.676;2023-12-28T11:38:20;12.90;99.90
15777;DHT22;7989;51.198;6.676;2023-12-28T11:40:47;12.80;99.90
15777;DHT22;7989;51.198;6.676;2023-12-28T11:43:21;12.80;99.90
15777;DHT22;7989;51.198;6.676;2023-12-28T11:45:51;12.80;99.90
15777;DHT22;7989;51.198;6.676;2023-12-28T11:48:24;12.90;99.90
15777;DHT22;7989;51.198;6.676;2023-12-28T11:50:54;13.00;99.90
15777;DHT22;7989;51.198;6.676;2023-12-28T11:53:22;13.00;99.90
15777;DHT22;7989;51.198;6.676;2023-12-28T11:55:48;13.00;99.90
15777;DHT22;7989;51.198;6.676;2023-12-28T11:58:16;12.90;99.90
15777;DHT22;7989;51.198;6.676;2023-12-28T12:00:42;12.90;99.90
15777;DHT22;7989;51.198;6.676;2023-12-28T12:03:12;12.80;99.90
15777;DHT22;7989;51.198;6.676;2023-12-28T12:05:39;12.70;99.90
15777;DHT22;7989;51.198;6.676;2023-12-28T12:08:06;12.70;99.90
15777;DHT22;7989;51.198;6.676;2023-12-28T12:10:36;12.80;99.90
15777;DHT22;7989;51.198;6.676;2023-12-28T12:13:03;12.80;99.90
15777;DHT22;7989;51.198;6.676;2023-12-28T12:15:30;12.70;99.90
15777;DHT22;7989;51.198;6.676;2023-12-28T12:17:57;12.70;99.90
15777;DHT22;7989;51.198;6.676;2023-12-28T12:20:26;12.70;99.90
15777;DHT22;7989;51.198;6.676;2023-12-28T12:23:02;12.70;99.90
15777;DHT22;7989;51.198;6.676;2023-12-28T12:25:29;12.70;99.90
15777;DHT22;7989;51.198;6.676;2023-12-28T12:27:56;12.80;99.90
15777;DHT22;7989;51.198;6.676;2023-12-28T12:30:22;12.80;99.90
15777;DHT22;7989;51.198;6.676;2023-12-28T12:32:49;12.70;99.90
15777;DHT22;7989;51.198;6.676;2023-12-28T12:35:16;12.70;99.90
15777;DHT22;7989;51.198;6.676;2023-12-28T12:37:48;12.70;99.90
15777;DHT22;7989;51.198;6.676;2023-12-28T12:40:17;12.80;99.90
15777;DHT22;7989;51.198;6.676;2023-12-28T12:42:52;12.80;99.90
15777;DHT22;7989;51.198;6.676;2023-12-28T12:45:18;12.80;99.90
15777;DHT22;7989;51.198;6.676;2023-12-28T12:47:46;12.70;99.90
15777;DHT22;7989;51.198;6.676;2023-12-28T12:50:13;12.70;99.90
15777;DHT22;7989;51.198;6.676;2023-12-28T12:52:40;12.70;99.90
15777;DHT22;7989;51.198;6.676;2023-12-28T12:55:12;12.70;99.90
15777;DHT22;7989;51.198;6.676;2023-12-28T12:57:39;12.70;99.90
15777;DHT22;7989;51.198;6.676;2023-12-28T13:00:09;12.80;99.90
15777;DHT22;7989;51.198;6.676;2023-12-28T13:02:37;12.80;99.90
15777;DHT22;7989;51.198;6.676;2023-12-28T13:05:05;12.80;99.90
15777;DHT22;7989;51.198;6.676;2023-12-28T13:07:32;12.80;99.90
15777;DHT22;7989;51.198;6.676;2023-12-28T13:09:59;12.70;99.90
15777;DHT22;7989;51.198;6.676;2023-12-28T13:12:28;12.70;99.90
15777;DHT22;7989;51.198;6.676;2023-12-28T13:14:55;12.60;99.90
15777;DHT22;7989;51.198;6.676;2023-12-28T13:17:21;12.60;99.90
15777;DHT22;7989;51.198;6.676;2023-12-28T13:19:49;12.50;99.90
15777;DHT22;7989;51.198;6.676;2023-12-28T13:22:16;12.50;99.90
15777;DHT22;7989;51.198;6.676;2023-12-28T13:24:43;12.50;99.90
15777;DHT22;7989;51.198;6.676;2023-12-28T13:27:10;12.50;99.90
15777;DHT22;7989;51.198;6.676;2023-12-28T13:29:38;12.50;99.90
15777;DHT22;7989;51.198;6.676;2023-12-28T13:32:06;12.40;99.90
15777;DHT22;7989;51.198;6.676;2023-12-28T13:34:32;12.50;99.90
15777;DHT22;7989;51.198;6.676;2023-12-28T13:36:59;12.40;99.90
15777;DHT22;7989;51.198;6.676;2023-12-28T13:39:28;12.40;99.90
15777;DHT22;7989;51.198;6.676;2023-12-28T13:41:55;12.40;99.90
15777;DHT22;7989;51.198;6.676;2023-12-28T13:44:22;12.40;99.90
15777;DHT22;7989;51.198;6.676;2023-12-28T13:46:50;12.40;99.90
15777;DHT22;7989;51.198;6.676;2023-12-28T13:49:19;12.40;99.90
15777;DHT22;7989;51.198;6.676;2023-12-28T13:51:46;12.30;99.90
15777;DHT22;7989;51.198;6.676;2023-12-28T13:54:13;12.30;99.90
15777;DHT22;7989;51.198;6.676;2023-12-28T13:56:39;12.30;99.90
15777;DHT22;7989;51.198;6.676;2023-12-28T13:59:07;12.30;99.90
15777;DHT22;7989;51.198;6.676;2023-12-28T14:01:34;12.30;99.90
15777;DHT22;7989;51.198;6.676;2023-12-28T14:04:02;12.30;99.90
15777;DHT22;7989;51.198;6.676;2023-12-28T14:06:32;12.30;99.90
15777;DHT22;7989;51.198;6.676;2023-12-28T14:08:59;12.20;99.90
15777;DHT22;7989;51.198;6.676;2023-12-28T14:11:25;12.20;99.90
15777;DHT22;7989;51.198;6.676;2023-12-28T14:13:52;12.20;99.90
15777;DHT22;7989;51.198;6.676;2023-12-28T14:16:19;12.20;99.90
15777;DHT22;7989;51.198;6.676;2023-12-28T14:18:46;12.10;99.90
15777;DHT22;7989;51.198;6.676;2023-12-28T14:21:16;12.10;99.90
15777;DHT22;7989;51.198;6.676;2023-12-28T14:23:43;12.10;99.90
15777;DHT22;7989;51.198;6.676;2023-12-28T14:26:12;12.10;99.90
15777;DHT22;7989;51.198;6.676;2023-12-28T14:28:40;12.10;99.90
15777;DHT22;7989;51.198;6.676;2023-12-28T14:31:09;12.00;99.90
15777;DHT22;7989;51.198;6.676;2023-12-28T14:33:36;12.10;99.90
15777;DHT22;7989;51.198;6.676;2023-12-28T14:36:07;12.00;99.90
15777;DHT22;7989;51.198;6.676;2023-12-28T14:38:38;12.00;99.90
15777;DHT22;7989;51.198;6.676;2023-12-28T14:41:05;12.00;99.90
15777;DHT22;7989;51.198;6.676;2023-12-28T14:43:32;12.00;99.90
15777;DHT22;7989;51.198;6.676;2023-12-28T14:45:59;11.90;99.90
15777;DHT22;7989;51.198;6.676;2023-12-28T14:48:25;11.90;99.90
15777;DHT22;7989;51.198;6.676;2023-12-28T14:50:52;11.90;99.90
15777;DHT22;7989;51.198;6.676;2023-12-28T14:53:19;11.90;99.90
15777;DHT22;7989;51.198;6.676;2023-12-28T14:55:47;11.90;99.90
15777;DHT22;7989;51.198;6.676;2023-12-28T14:58:14;11.80;99.90
15777;DHT22;7989;51.198;6.676;2023-12-28T15:00:43;11.80;99.90
15777;DHT22;7989;51.198;6.676;2023-12-28T15:03:10;11.80;99.90
15777;DHT22;7989;51.198;6.676;2023-12-28T15:05:37;11.70;99.90
15777;DHT22;7989;51.198;6.676;2023-12-28T15:08:04;11.70;99.90
15777;DHT22;7989;51.198;6.676;2023-12-28T15:10:32;11.70;99.90
15777;DHT22;7989;51.198;6.676;2023-12-28T15:13:01;11.70;99.90
15777;DHT22;7989;51.198;6.676;2023-12-28T15:15:29;11.70;99.90
15777;DHT22;7989;51.198;6.676;2023-12-28T15:17:56;11.60;99.90
15777;DHT22;7989;51.198;6.676;2023-12-28T15:20:24;11.60;99.90
15777;DHT22;7989;51.198;6.676;2023-12-28T15:22:52;11.60;99.90
15777;DHT22;7989;51.198;6.676;2023-12-28T15:25:19;11.50;99.90
15777;DHT22;7989;51.198;6.676;2023-12-28T15:27:47;11.50;99.90
15777;DHT22;7989;51.198;6.676;2023-12-28T15:30:15;11.40;99.90
15777;DHT22;7989;51.198;6.676;2023-12-28T15:32:42;11.50;99.90
15777;DHT22;7989;51.198;6.676;2023-12-28T15:35:12;11.40;99.90
15777;DHT22;7989;51.198;6.676;2023-12-28T15:37:39;11.40;99.90
15777;DHT22;7989;51.198;6.676;2023-12-28T15:40:07;11.40;99.90
15777;DHT22;7989;51.198;6.676;2023-12-28T15:42:34;11.40;99.90
15777;DHT22;7989;51.198;6.676;2023-12-28T15:45:01;11.30;99.90
15777;DHT22;7989;51.198;6.676;2023-12-28T15:47:30;11.30;99.90